sensor_id;sensor_type;location;lat;lon;timestamp;pressure;altitude;pressure_sealevel;temperature;humidity
86328;BME280;76984;52.332;10.562;2024-03-22T00:00:51;101248.31;;;7.99;78.79
86328;BME280;76984;52.332;10.562;2024-03-22T00:01:53;101280.81;;;8.27;78.45
86328;BME280;76984;52.332;10.562;2024-03-22T00:02:53;101278.88;;;8.33;78.27
86328;BME280;76984;52.332;10.562;2024-03-22T00:03:53;101240.06;;;8.04;78.63
86328;BME280;76984;52.332;10.562;2024-03-22T00:04:54;101286.34;;;8.27;78.51
86328;BME280;76984;52.332;10.562;2024-03-22T00:05:54;101274.22;;;8.18;79.09
86328;BME280;76984;52.332;10.562;2024-03-22T00:06:54;101253.28;;;8.02;79.29
86328;BME280;76984;52.332;10.562;2024-03-22T00:07:54;101235.91;;;7.91;79.24
86328;BME280;76984;52.332;10.562;2024-03-22T00:08:55;101233.72;;;7.93;79.05
86328;BME280;76984;52.332;10.562;2024-03-22T00:09:56;101223.25;;;7.90;78.75
86328;BME280;76984;52.332;10.562;2024-03-22T00:10:56;101232.88;;;7.92;79.09
86328;BME280;76984;52.332;10.562;2024-03-22T00:11:56;101265.97;;;8.13;79.16
86328;BME280;76984;52.332;10.562;2024-03-22T00:12:57;101246.94;;;8.06;79.10
86328;BME280;76984;52.332;10.562;2024-03-22T00:13:57;101289.09;;;8.27;78.67
86328;BME280;76984;52.332;10.562;2024-03-22T00:14:57;101258.25;;;8.15;78.91
86328;BME280;76984;52.332;10.562;2024-03-22T00:15:58;101272.81;;;8.31;78.68
86328;BME280;76984;52.332;10.562;2024-03-22T00:16:58;101266.50;;;8.25;78.91
86328;BME280;76984;52.332;10.562;2024-03-22T00:17:58;101262.09;;;8.14;78.67
86328;BME280;76984;52.332;10.562;2024-03-22T00:18:58;101273.38;;;8.28;78.86
86328;BME280;76984;52.332;10.562;2024-03-22T00:20:00;101198.16;;;7.91;78.62
86328;BME280;76984;52.332;10.562;2024-03-22T00:21:00;101259.84;;;8.31;78.50
86328;BME280;76984;52.332;10.562;2024-03-22T00:22:02;101264.81;;;8.34;78.59
86328;BME280;76984;52.332;10.562;2024-03-22T00:23:02;101214.44;;;8.03;78.85
86328;BME280;76984;52.332;10.562;2024-03-22T00:24:03;101256.00;;;8.32;78.94
86328;BME280;76984;52.332;10.562;2024-03-22T00:25:03;101239.44;;;8.22;78.29
86328;BME280;76984;52.332;10.562;2024-03-22T00:26:07;101261.78;;;8.36;78.60
86328;BME280;76984;52.332;10.562;2024-03-22T00:27:07;101242.78;;;8.24;78.31
86328;BME280;76984;52.332;10.562;2024-03-22T00:28:07;101241.38;;;8.21;78.39
86328;BME280;76984;52.332;10.562;2024-03-22T00:29:08;101244.16;;;8.27;78.35
86328;BME280;76984;52.332;10.562;2024-03-22T00:30:08;101259.28;;;8.39;78.79
86328;BME280;76984;52.332;10.562;2024-03-22T00:31:09;101259.84;;;8.41;78.27
86328;BME280;76984;52.332;10.562;2024-03-22T00:32:09;101248.28;;;8.34;78.33
86328;BME280;76984;52.332;10.562;2024-03-22T00:33:09;101220.72;;;8.19;78.51
86328;BME280;76984;52.332;10.562;2024-03-22T00:34:10;101238.63;;;8.32;78.01
86328;BME280;76984;52.332;10.562;2024-03-22T00:35:10;101249.34;;;8.38;78.42
86328;BME280;76984;52.332;10.562;2024-03-22T00:36:10;101258.19;;;8.35;78.73
86328;BME280;76984;52.332;10.562;2024-03-22T00:37:11;101263.69;;;8.40;78.48
86328;BME280;76984;52.332;10.562;2024-03-22T00:38:11;101225.41;;;8.18;78.39
86328;BME280;76984;52.332;10.562;2024-03-22T00:39:11;101259.03;;;8.36;78.57
86328;BME280;76984;52.332;10.562;2024-03-22T00:40:12;101260.94;;;8.40;78.43
86328;BME280;76984;52.332;10.562;2024-03-22T00:41:13;101230.09;;;8.23;78.63
86328;BME280;76984;52.332;10.562;2024-03-22T00:42:13;101224.84;;;8.21;78.33
86328;BME280;76984;52.332;10.562;2024-03-22T00:43:13;101203.66;;;8.07;77.98
86328;BME280;76984;52.332;10.562;2024-03-22T00:44:14;101241.94;;;8.34;78.21
86328;BME280;76984;52.332;10.562;2024-03-22T00:45:14;101212.75;;;8.17;78.16
86328;BME280;76984;52.332;10.562;2024-03-22T00:46:14;101257.34;;;8.40;78.34
86328;BME280;76984;52.332;10.562;2024-03-22T00:47:14;101249.06;;;8.40;78.40
86328;BME280;76984;52.332;10.562;2024-03-22T00:48:15;101251.00;;;8.39;78.21
86328;BME280;76984;52.332;10.562;2024-03-22T00:49:16;101215.78;;;8.16;78.38
86328;BME280;76984;52.332;10.562;2024-03-22T00:50:16;101200.34;;;8.15;78.41
86328;BME280;76984;52.332;10.562;2024-03-22T00:51:16;101183.84;;;7.94;78.73
86328;BME280;76984;52.332;10.562;2024-03-22T00:52:17;101191.53;;;8.03;78.95
86328;BME280;76984;52.332;10.562;2024-03-22T00:53:17;101238.59;;;8.37;78.18
86328;BME280;76984;52.332;10.562;2024-03-22T00:54:17;101198.69;;;8.09;78.68
86328;BME280;76984;52.332;10.562;2024-03-22T00:55:18;101225.66;;;8.22;78.66
86328;BME280;76984;52.332;10.562;2024-03-22T00:56:18;101232.84;;;8.28;78.78
86328;BME280;76984;52.332;10.562;2024-03-22T00:57:19;101231.72;;;8.29;78.51
86328;BME280;76984;52.332;10.562;2024-03-22T00:58:20;101238.59;;;8.37;78.70
86328;BME280;76984;52.332;10.562;2024-03-22T00:59:20;101233.38;;;8.35;78.35
86328;BME280;76984;52.332;10.562;2024-03-22T01:00:20;101219.31;;;8.37;78.40
86328;BME280;76984;52.332;10.562;2024-03-22T01:01:21;101211.88;;;8.32;78.53
86328;BME280;76984;52.332;10.562;2024-03-22T01:02:21;101239.69;;;8.51;78.03
86328;BME280;76984;52.332;10.562;2024-03-22T01:03:22;101204.72;;;8.26;78.83
86328;BME280;76984;52.332;10.562;2024-03-22T01:04:23;101211.31;;;8.30;78.60
86328;BME280;76984;52.332;10.562;2024-03-22T01:05:23;101211.06;;;8.32;79.04
86328;BME280;76984;52.332;10.562;2024-03-22T01:06:24;101189.59;;;8.13;78.87
86328;BME280;76984;52.332;10.562;2024-03-22T01:07:25;101196.44;;;8.26;79.13
86328;BME280;76984;52.332;10.562;2024-03-22T01:08:25;101180.47;;;8.18;78.76
86328;BME280;76984;52.332;10.562;2024-03-22T01:09:25;101192.03;;;8.25;79.21
86328;BME280;76984;52.332;10.562;2024-03-22T01:10:26;101190.66;;;8.33;78.89
86328;BME280;76984;52.332;10.562;2024-03-22T01:11:27;101162.88;;;8.14;78.84
86328;BME280;76984;52.332;10.562;2024-03-22T01:12:27;101203.00;;;8.40;79.29
86328;BME280;76984;52.332;10.562;2024-03-22T01:13:27;101143.03;;;8.02;78.99
86328;BME280;76984;52.332;10.562;2024-03-22T01:14:28;101189.53;;;8.29;79.26
86328;BME280;76984;52.332;10.562;2024-03-22T01:15:28;101187.06;;;8.32;78.67
86328;BME280;76984;52.332;10.562;2024-03-22T01:16:28;101200.53;;;8.39;79.16
86328;BME280;76984;52.332;10.562;2024-03-22T01:17:28;101211.28;;;8.40;79.46
86328;BME280;76984;52.332;10.562;2024-03-22T01:18:29;101205.75;;;8.45;79.22
86328;BME280;76984;52.332;10.562;2024-03-22T01:19:29;101168.06;;;8.25;78.99
86328;BME280;76984;52.332;10.562;2024-03-22T01:20:29;101184.81;;;8.39;78.89
86328;BME280;76984;52.332;10.562;2024-03-22T01:21:29;101198.03;;;8.52;78.56
86328;BME280;76984;52.332;10.562;2024-03-22T01:22:30;101201.88;;;8.51;78.43
86328;BME280;76984;52.332;10.562;2024-03-22T01:23:30;101158.38;;;8.28;78.39
86328;BME280;76984;52.332;10.562;2024-03-22T01:24:30;101182.00;;;8.49;78.63
86328;BME280;76984;52.332;10.562;2024-03-22T01:25:31;101162.22;;;8.37;78.83
86328;BME280;76984;52.332;10.562;2024-03-22T01:26:31;101169.38;;;8.38;78.82
86328;BME280;76984;52.332;10.562;2024-03-22T01:27:31;101169.69;;;8.32;78.50
86328;BME280;76984;52.332;10.562;2024-03-22T01:28:31;101196.66;;;8.40;78.86
86328;BME280;76984;52.332;10.562;2024-03-22T01:29:32;101164.47;;;8.20;79.00
86328;BME280;76984;52.332;10.562;2024-03-22T01:30:32;101174.09;;;8.33;79.45
86328;BME280;76984;52.332;10.562;2024-03-22T01:31:34;101188.09;;;8.46;79.27
86328;BME280;76984;52.332;10.562;2024-03-22T01:32:35;101193.31;;;8.53;78.67
86328;BME280;76984;52.332;10.562;2024-03-22T01:33:35;101173.50;;;8.46;78.79
86328;BME280;76984;52.332;10.562;2024-03-22T01:34:36;101151.22;;;8.27;78.61
86328;BME280;76984;52.332;10.562;2024-03-22T01:35:36;101128.91;;;8.23;78.65
86328;BME280;76984;52.332;10.562;2024-03-22T01:36:36;101165.50;;;8.44;78.76
86328;BME280;76984;52.332;10.562;2024-03-22T01:37:36;101165.78;;;8.38;79.04
86328;BME280;76984;52.332;10.562;2024-03-22T01:38:37;101159.16;;;8.39;78.77
86328;BME280;76984;52.332;10.562;2024-03-22T01:39:37;101161.38;;;8.42;79.08
86328;BME280;76984;52.332;10.562;2024-03-22T01:40:37;101187.25;;;8.56;78.85
86328;BME280;76984;52.332;10.562;2024-03-22T01:41:37;101183.66;;;8.56;78.62
86328;BME280;76984;52.332;10.562;2024-03-22T01:42:38;101178.72;;;8.52;78.72
86328;BME280;76984;52.332;10.562;2024-03-22T01:43:38;101147.88;;;8.35;79.01
86328;BME280;76984;52.332;10.562;2024-03-22T01:44:38;101171.56;;;8.46;79.09
86328;BME280;76984;52.332;10.562;2024-03-22T01:45:38;101134.69;;;8.32;79.49
86328;BME280;76984;52.332;10.562;2024-03-22T01:46:39;101137.44;;;8.32;78.68
86328;BME280;76984;52.332;10.562;2024-03-22T01:47:40;101109.63;;;8.18;78.74
86328;BME280;76984;52.332;10.562;2024-03-22T01:48:41;101110.72;;;8.22;78.53
86328;BME280;76984;52.332;10.562;2024-03-22T01:49:41;101146.50;;;8.38;79.07
86328;BME280;76984;52.332;10.562;2024-03-22T01:50:41;101110.47;;;8.14;78.91
86328;BME280;76984;52.332;10.562;2024-03-22T01:51:43;101158.06;;;8.40;78.98
86328;BME280;76984;52.332;10.562;2024-03-22T01:52:43;101191.34;;;8.59;79.11
86328;BME280;76984;52.332;10.562;2024-03-22T01:53:44;101163.28;;;8.46;78.64
86328;BME280;76984;52.332;10.562;2024-03-22T01:54:49;101190.53;;;8.58;78.84
86328;BME280;76984;52.332;10.562;2024-03-22T01:55:49;101189.16;;;8.56;79.08
86328;BME280;76984;52.332;10.562;2024-03-22T01:56:50;101187.81;;;8.53;79.24
86328;BME280;76984;52.332;10.562;2024-03-22T01:57:51;101187.53;;;8.54;79.68
86328;BME280;76984;52.332;10.562;2024-03-22T01:58:53;101177.84;;;8.57;78.89
86328;BME280;76984;52.332;10.562;2024-03-22T01:59:55;101142.09;;;8.42;78.58
86328;BME280;76984;52.332;10.562;2024-03-22T02:00:57;101168.22;;;8.54;79.19
86328;BME280;76984;52.332;10.562;2024-03-22T02:01:57;101173.72;;;8.54;79.46
86328;BME280;76984;52.332;10.562;2024-03-22T02:02:57;101149.53;;;8.36;79.32
86328;BME280;76984;52.332;10.562;2024-03-22T02:03:57;101139.91;;;8.34;79.29
86328;BME280;76984;52.332;10.562;2024-03-22T02:04:58;101172.63;;;8.50;79.19
86328;BME280;76984;52.332;10.562;2024-03-22T02:05:58;101133.56;;;8.33;79.57
86328;BME280;76984;52.332;10.562;2024-03-22T02:06:59;101155.78;;;8.57;78.99
86328;BME280;76984;52.332;10.562;2024-03-22T02:07:59;101123.38;;;8.34;79.07
86328;BME280;76984;52.332;10.562;2024-03-22T02:08:59;101151.41;;;8.51;79.27
86328;BME280;76984;52.332;10.562;2024-03-22T02:10:00;101133.22;;;8.45;78.69
86328;BME280;76984;52.332;10.562;2024-03-22T02:11:00;101158.53;;;8.62;78.92
86328;BME280;76984;52.332;10.562;2024-03-22T02:12:01;101163.47;;;8.60;79.36
86328;BME280;76984;52.332;10.562;2024-03-22T02:13:01;101106.03;;;8.23;79.45
86328;BME280;76984;52.332;10.562;2024-03-22T02:14:01;101106.81;;;8.29;79.13
86328;BME280;76984;52.332;10.562;2024-03-22T02:15:02;101084.53;;;8.20;78.85
86328;BME280;76984;52.332;10.562;2024-03-22T02:16:03;101103.53;;;8.32;78.82
86328;BME280;76984;52.332;10.562;2024-03-22T02:17:04;101097.16;;;8.36;79.06
86328;BME280;76984;52.332;10.562;2024-03-22T02:18:04;101116.16;;;8.43;79.00
86328;BME280;76984;52.332;10.562;2024-03-22T02:19:04;101110.63;;;8.43;78.86
86328;BME280;76984;52.332;10.562;2024-03-22T02:20:05;101133.41;;;8.64;79.27
86328;BME280;76984;52.332;10.562;2024-03-22T02:21:06;101129.28;;;8.61;78.80
86328;BME280;76984;52.332;10.562;2024-03-22T02:22:06;101114.69;;;8.56;78.46
86328;BME280;76984;52.332;10.562;2024-03-22T02:23:06;101121.25;;;8.65;78.26
86328;BME280;76984;52.332;10.562;2024-03-22T02:24:07;101107.53;;;8.54;78.71
86328;BME280;76984;52.332;10.562;2024-03-22T02:25:07;101138.88;;;8.69;78.50
86328;BME280;76984;52.332;10.562;2024-03-22T02:26:10;101136.13;;;8.74;78.14
86328;BME280;76984;52.332;10.562;2024-03-22T02:27:10;101129.25;;;8.66;78.73
86328;BME280;76984;52.332;10.562;2024-03-22T02:28:11;101130.06;;;8.72;78.06
86328;BME280;76984;52.332;10.562;2024-03-22T02:29:11;101126.16;;;8.78;78.46
86328;BME280;76984;52.332;10.562;2024-03-22T02:30:11;101098.97;;;8.56;78.79
86328;BME280;76984;52.332;10.562;2024-03-22T02:31:11;101133.09;;;8.70;78.32
86328;BME280;76984;52.332;10.562;2024-03-22T02:32:12;101120.41;;;8.69;78.81
86328;BME280;76984;52.332;10.562;2024-03-22T02:33:12;101122.06;;;8.70;78.62
86328;BME280;76984;52.332;10.562;2024-03-22T02:34:12;101117.38;;;8.71;78.37
86328;BME280;76984;52.332;10.562;2024-03-22T02:35:13;101001.94;;;8.00;78.56
86328;BME280;76984;52.332;10.562;2024-03-22T02:36:13;101090.16;;;8.49;78.50
86328;BME280;76984;52.332;10.562;2024-03-22T02:37:13;101069.28;;;8.38;78.45
86328;BME280;76984;52.332;10.562;2024-03-22T02:38:14;101095.63;;;8.59;78.77
86328;BME280;76984;52.332;10.562;2024-03-22T02:39:14;101101.38;;;8.68;78.51
86328;BME280;76984;52.332;10.562;2024-03-22T02:40:15;101078.31;;;8.48;78.44
86328;BME280;76984;52.332;10.562;2024-03-22T02:41:15;101071.69;;;8.49;78.25
86328;BME280;76984;52.332;10.562;2024-03-22T02:42:15;101094.72;;;8.74;78.35
86328;BME280;76984;52.332;10.562;2024-03-22T02:43:16;101026.03;;;8.33;77.60
86328;BME280;76984;52.332;10.562;2024-03-22T02:44:18;101087.56;;;8.73;77.84
86328;BME280;76984;52.332;10.562;2024-03-22T02:45:19;101060.66;;;8.49;78.23
86328;BME280;76984;52.332;10.562;2024-03-22T02:46:19;101076.00;;;8.66;78.25
86328;BME280;76984;52.332;10.562;2024-03-22T02:47:19;101054.59;;;8.52;78.05
86328;BME280;76984;52.332;10.562;2024-03-22T02:48:20;101084.81;;;8.73;78.61
86328;BME280;76984;52.332;10.562;2024-03-22T02:49:20;101054.00;;;8.56;78.79
86328;BME280;76984;52.332;10.562;2024-03-22T02:50:21;101065.56;;;8.63;78.29
86328;BME280;76984;52.332;10.562;2024-03-22T02:51:21;101046.84;;;8.54;78.09
86328;BME280;76984;52.332;10.562;2024-03-22T02:52:21;101075.34;;;8.79;77.98
86328;BME280;76984;52.332;10.562;2024-03-22T02:53:21;101038.00;;;8.58;78.09
86328;BME280;76984;52.332;10.562;2024-03-22T02:54:22;101067.06;;;8.79;78.03
86328;BME280;76984;52.332;10.562;2024-03-22T02:55:22;101065.50;;;8.73;78.03
86328;BME280;76984;52.332;10.562;2024-03-22T02:56:22;101023.97;;;8.49;78.41
86328;BME280;76984;52.332;10.562;2024-03-22T02:57:22;101036.34;;;8.57;78.34
86328;BME280;76984;52.332;10.562;2024-03-22T02:58:23;101066.81;;;8.80;78.49
86328;BME280;76984;52.332;10.562;2024-03-22T02:59:26;101046.13;;;8.78;77.97
86328;BME280;76984;52.332;10.562;2024-03-22T03:00:27;101019.50;;;8.58;77.75
86328;BME280;76984;52.332;10.562;2024-03-22T03:01:27;101044.19;;;8.78;77.92
86328;BME280;76984;52.332;10.562;2024-03-22T03:02:27;101059.03;;;8.88;78.02
86328;BME280;76984;52.332;10.562;2024-03-22T03:03:28;101025.75;;;8.69;78.04
86328;BME280;76984;52.332;10.562;2024-03-22T03:04:28;101039.47;;;8.84;77.97
86328;BME280;76984;52.332;10.562;2024-03-22T03:05:28;101030.16;;;8.75;78.25
86328;BME280;76984;52.332;10.562;2024-03-22T03:06:28;101056.03;;;8.84;78.35
86328;BME280;76984;52.332;10.562;2024-03-22T03:07:29;101047.53;;;8.75;78.18
86328;BME280;76984;52.332;10.562;2024-03-22T03:08:29;101023.66;;;8.61;78.10
86328;BME280;76984;52.332;10.562;2024-03-22T03:09:29;101056.31;;;8.82;78.14
86328;BME280;76984;52.332;10.562;2024-03-22T03:10:30;101015.69;;;8.54;78.09
86328;BME280;76984;52.332;10.562;2024-03-22T03:11:30;101053.56;;;8.77;78.23
86328;BME280;76984;52.332;10.562;2024-03-22T03:12:30;101052.47;;;8.78;77.98
86328;BME280;76984;52.332;10.562;2024-03-22T03:13:30;101023.66;;;8.56;78.32
86328;BME280;76984;52.332;10.562;2024-03-22T03:14:31;101057.44;;;8.81;78.17
86328;BME280;76984;52.332;10.562;2024-03-22T03:15:31;101043.66;;;8.76;78.28
86328;BME280;76984;52.332;10.562;2024-03-22T03:16:31;101010.94;;;8.60;78.09
86328;BME280;76984;52.332;10.562;2024-03-22T03:17:32;101051.34;;;8.85;77.93
86328;BME280;76984;52.332;10.562;2024-03-22T03:18:32;101040.06;;;8.76;77.87
86328;BME280;76984;52.332;10.562;2024-03-22T03:19:32;101056.59;;;8.86;78.17
86328;BME280;76984;52.332;10.562;2024-03-22T03:20:32;101026.84;;;8.73;77.63
86328;BME280;76984;52.332;10.562;2024-03-22T03:21:33;101020.81;;;8.71;77.77
86328;BME280;76984;52.332;10.562;2024-03-22T03:22:34;101027.69;;;8.73;78.27
86328;BME280;76984;52.332;10.562;2024-03-22T03:23:35;101025.22;;;8.72;77.58
86328;BME280;76984;52.332;10.562;2024-03-22T03:24:35;101014.19;;;8.72;77.87
86328;BME280;76984;52.332;10.562;2024-03-22T03:25:35;101025.66;;;8.84;77.55
86328;BME280;76984;52.332;10.562;2024-03-22T03:26:36;101013.31;;;8.76;77.92
86328;BME280;76984;52.332;10.562;2024-03-22T03:27:36;101004.78;;;8.73;77.66
86328;BME280;76984;52.332;10.562;2024-03-22T03:28:36;101003.63;;;8.79;77.49
86328;BME280;76984;52.332;10.562;2024-03-22T03:29:37;101025.41;;;8.86;77.82
86328;BME280;76984;52.332;10.562;2024-03-22T03:30:37;100987.19;;;8.64;77.92
86328;BME280;76984;52.332;10.562;2024-03-22T03:31:37;100994.31;;;8.70;77.46
86328;BME280;76984;52.332;10.562;2024-03-22T03:32:38;101023.09;;;8.98;77.39
86328;BME280;76984;52.332;10.562;2024-03-22T03:33:38;101015.69;;;8.93;77.89
86328;BME280;76984;52.332;10.562;2024-03-22T03:34:38;101011.78;;;8.99;77.33
86328;BME280;76984;52.332;10.562;2024-03-22T03:35:38;100989.13;;;8.97;77.13
86328;BME280;76984;52.332;10.562;2024-03-22T03:36:39;100998.81;;;9.00;77.08
86328;BME280;76984;52.332;10.562;2024-03-22T03:37:39;100979.28;;;8.91;77.55
86328;BME280;76984;52.332;10.562;2024-03-22T03:38:39;100980.34;;;8.95;77.23
86328;BME280;76984;52.332;10.562;2024-03-22T03:39:41;100997.38;;;9.02;77.63
86328;BME280;76984;52.332;10.562;2024-03-22T03:40:41;100960.03;;;8.81;77.64
86328;BME280;76984;52.332;10.562;2024-03-22T03:41:42;100964.44;;;8.82;77.33
86328;BME280;76984;52.332;10.562;2024-03-22T03:42:42;100934.81;;;8.59;77.75
86328;BME280;76984;52.332;10.562;2024-03-22T03:43:42;100999.03;;;9.03;77.49
86328;BME280;76984;52.332;10.562;2024-03-22T03:44:43;100964.38;;;8.87;77.28
86328;BME280;76984;52.332;10.562;2024-03-22T03:45:43;100942.34;;;8.82;77.42
86328;BME280;76984;52.332;10.562;2024-03-22T03:46:43;100949.50;;;8.83;77.35
86328;BME280;76984;52.332;10.562;2024-03-22T03:47:43;100966.03;;;8.88;77.48
86328;BME280;76984;52.332;10.562;2024-03-22T03:48:44;100980.34;;;8.95;77.65
86328;BME280;76984;52.332;10.562;2024-03-22T03:49:47;100979.00;;;8.88;77.52
86328;BME280;76984;52.332;10.562;2024-03-22T03:50:52;100927.09;;;8.61;77.07
86328;BME280;76984;52.332;10.562;2024-03-22T03:51:53;100956.25;;;8.72;77.57
86328;BME280;76984;52.332;10.562;2024-03-22T03:52:53;100983.97;;;8.91;77.67
86328;BME280;76984;52.332;10.562;2024-03-22T03:53:53;100982.34;;;8.90;77.97
86328;BME280;76984;52.332;10.562;2024-03-22T03:54:53;100961.97;;;8.80;77.75
86328;BME280;76984;52.332;10.562;2024-03-22T03:55:54;100987.78;;;8.95;77.93
86328;BME280;76984;52.332;10.562;2024-03-22T03:56:54;100995.00;;;8.91;77.50
86328;BME280;76984;52.332;10.562;2024-03-22T03:57:54;100926.63;;;8.48;77.61
86328;BME280;76984;52.332;10.562;2024-03-22T03:58:55;100954.59;;;8.71;77.77
86328;BME280;76984;52.332;10.562;2024-03-22T03:59:55;100932.94;;;8.54;77.54
86328;BME280;76984;52.332;10.562;2024-03-22T04:00:56;100905.81;;;8.32;78.20
86328;BME280;76984;52.332;10.562;2024-03-22T04:01:56;100966.44;;;8.71;78.36
86328;BME280;76984;52.332;10.562;2024-03-22T04:02:56;100940.91;;;8.56;78.05
86328;BME280;76984;52.332;10.562;2024-03-22T04:03:56;100960.34;;;8.74;78.07
86328;BME280;76984;52.332;10.562;2024-03-22T04:04:57;100943.06;;;8.64;78.04
86328;BME280;76984;52.332;10.562;2024-03-22T04:05:58;100948.53;;;8.69;77.71
86328;BME280;76984;52.332;10.562;2024-03-22T04:06:58;100969.94;;;8.82;78.09
86328;BME280;76984;52.332;10.562;2024-03-22T04:07:58;100951.25;;;8.74;78.03
86328;BME280;76984;52.332;10.562;2024-03-22T04:08:58;100956.19;;;8.77;77.65
86328;BME280;76984;52.332;10.562;2024-03-22T04:09:59;100968.00;;;8.82;77.78
86328;BME280;76984;52.332;10.562;2024-03-22T04:11:00;100953.41;;;8.77;77.86
86328;BME280;76984;52.332;10.562;2024-03-22T04:12:00;100945.72;;;8.74;77.60
86328;BME280;76984;52.332;10.562;2024-03-22T04:13:01;100964.97;;;8.79;77.98
86328;BME280;76984;52.332;10.562;2024-03-22T04:14:02;100931.81;;;8.55;77.83
86328;BME280;76984;52.332;10.562;2024-03-22T04:15:02;100964.44;;;8.82;77.39
86328;BME280;76984;52.332;10.562;2024-03-22T04:16:03;100965.50;;;8.86;77.62
86328;BME280;76984;52.332;10.562;2024-03-22T04:17:03;100972.41;;;8.83;77.37
86328;BME280;76984;52.332;10.562;2024-03-22T04:18:03;100960.06;;;8.76;77.65
86328;BME280;76984;52.332;10.562;2024-03-22T04:19:04;100944.69;;;8.65;77.59
86328;BME280;76984;52.332;10.562;2024-03-22T04:20:05;100939.13;;;8.70;77.37
86328;BME280;76984;52.332;10.562;2024-03-22T04:21:05;100967.69;;;8.89;77.80
86328;BME280;76984;52.332;10.562;2024-03-22T04:22:05;100934.47;;;8.70;77.53
86328;BME280;76984;52.332;10.562;2024-03-22T04:23:06;100939.72;;;8.67;77.45
86328;BME280;76984;52.332;10.562;2024-03-22T04:24:06;100969.94;;;8.82;77.51
86328;BME280;76984;52.332;10.562;2024-03-22T04:25:06;100959.53;;;8.74;77.86
86328;BME280;76984;52.332;10.562;2024-03-22T04:26:08;100947.97;;;8.72;78.02
86328;BME280;76984;52.332;10.562;2024-03-22T04:27:09;100947.97;;;8.72;77.75
86328;BME280;76984;52.332;10.562;2024-03-22T04:28:09;100921.91;;;8.54;78.05
86328;BME280;76984;52.332;10.562;2024-03-22T04:29:09;100946.84;;;8.73;77.66
86328;BME280;76984;52.332;10.562;2024-03-22T04:30:10;100952.06;;;8.74;77.60
86328;BME280;76984;52.332;10.562;2024-03-22T04:31:11;100933.69;;;8.60;78.18
86328;BME280;76984;52.332;10.562;2024-03-22T04:32:11;100938.88;;;8.66;77.64
86328;BME280;76984;52.332;10.562;2024-03-22T04:33:11;100953.47;;;8.72;78.01
86328;BME280;76984;52.332;10.562;2024-03-22T04:34:11;100922.50;;;8.46;78.52
86328;BME280;76984;52.332;10.562;2024-03-22T04:35:12;100913.38;;;8.50;77.94
86328;BME280;76984;52.332;10.562;2024-03-22T04:36:12;100922.72;;;8.54;77.52
86328;BME280;76984;52.332;10.562;2024-03-22T04:37:12;100930.13;;;8.59;77.79
86328;BME280;76984;52.332;10.562;2024-03-22T04:38:13;100928.16;;;8.65;77.79
86328;BME280;76984;52.332;10.562;2024-03-22T04:39:13;100902.91;;;8.47;77.97
86328;BME280;76984;52.332;10.562;2024-03-22T04:40:14;100941.31;;;8.73;77.19
86328;BME280;76984;52.332;10.562;2024-03-22T04:41:14;100924.88;;;8.63;77.27
86328;BME280;76984;52.332;10.562;2024-03-22T04:42:14;100930.31;;;8.68;76.87
86328;BME280;76984;52.332;10.562;2024-03-22T04:43:16;100932.75;;;8.74;77.26
86328;BME280;76984;52.332;10.562;2024-03-22T04:44:16;100925.16;;;8.61;77.15
86328;BME280;76984;52.332;10.562;2024-03-22T04:45:17;100939.31;;;8.78;77.55
86328;BME280;76984;52.332;10.562;2024-03-22T04:46:17;100940.16;;;8.79;77.67
86328;BME280;76984;52.332;10.562;2024-03-22T04:47:17;100897.31;;;8.58;77.22
86328;BME280;76984;52.332;10.562;2024-03-22T04:48:19;100933.53;;;8.80;77.43
86328;BME280;76984;52.332;10.562;2024-03-22T04:49:20;100900.84;;;8.63;77.65
86328;BME280;76984;52.332;10.562;2024-03-22T04:50:20;100916.22;;;8.69;76.94
86328;BME280;76984;52.332;10.562;2024-03-22T04:51:20;100927.69;;;8.87;76.70
86328;BME280;76984;52.332;10.562;2024-03-22T04:52:20;100887.81;;;8.69;77.10
86328;BME280;76984;52.332;10.562;2024-03-22T04:53:21;100847.28;;;8.40;76.79
86328;BME280;76984;52.332;10.562;2024-03-22T04:54:21;100882.38;;;8.64;77.06
86328;BME280;76984;52.332;10.562;2024-03-22T04:55:22;100889.31;;;8.61;77.21
86328;BME280;76984;52.332;10.562;2024-03-22T04:56:22;100884.88;;;8.60;77.01
86328;BME280;76984;52.332;10.562;2024-03-22T04:57:23;100900.69;;;8.78;77.55
86328;BME280;76984;52.332;10.562;2024-03-22T04:58:23;100866.22;;;8.52;77.43
86328;BME280;76984;52.332;10.562;2024-03-22T04:59:23;100907.59;;;8.81;77.45
86328;BME280;76984;52.332;10.562;2024-03-22T05:00:23;100870.63;;;8.53;77.41
86328;BME280;76984;52.332;10.562;2024-03-22T05:01:25;100904.00;;;8.80;77.01
86328;BME280;76984;52.332;10.562;2024-03-22T05:02:25;100879.03;;;8.67;77.17
86328;BME280;76984;52.332;10.562;2024-03-22T05:03:25;100890.84;;;8.72;77.45
86328;BME280;76984;52.332;10.562;2024-03-22T05:04:26;100906.97;;;8.89;76.82
86328;BME280;76984;52.332;10.562;2024-03-22T05:05:26;100868.50;;;8.69;77.00
86328;BME280;76984;52.332;10.562;2024-03-22T05:06:26;100907.00;;;8.84;76.88
86328;BME280;76984;52.332;10.562;2024-03-22T05:07:26;100875.72;;;8.65;77.10
86328;BME280;76984;52.332;10.562;2024-03-22T05:08:27;100887.25;;;8.72;77.70
86328;BME280;76984;52.332;10.562;2024-03-22T05:09:27;100882.38;;;8.64;77.82
86328;BME280;76984;52.332;10.562;2024-03-22T05:10:28;100888.38;;;8.71;77.47
86328;BME280;76984;52.332;10.562;2024-03-22T05:11:29;100860.59;;;8.62;77.46
86328;BME280;76984;52.332;10.562;2024-03-22T05:12:29;100880.66;;;8.68;76.99
86328;BME280;76984;52.332;10.562;2024-03-22T05:13:29;100884.44;;;8.77;77.28
86328;BME280;76984;52.332;10.562;2024-03-22T05:14:31;100878.06;;;8.81;76.82
86328;BME280;76984;52.332;10.562;2024-03-22T05:15:31;100868.13;;;8.80;76.84
86328;BME280;76984;52.332;10.562;2024-03-22T05:16:31;100859.72;;;8.67;76.69